Frostburg, Pennsylvania
Current Conditions -  °F | °C
As of 11:53 AM on Thursday 23 Oct 2014 (Local Time) from KDUJ Reporting Station
Clear Clear  
Wind Chill: 53°   Ceiling: Unl
Heat Index: 53°   Visibility: 10mi
Dew Point: 39°   Wind: 16mph
Humidity: 59%   Direction: 350°N
Pressure: 30.05"   Gusts: 24mph
Location:  40.96°N, 79.03°W
Report Text: KDUJ 231553Z AUTO 35014G21KT 10SM CLR 12/04 A3005 RMK AO2 SLP179 T01170039
Loading
Personal Weather Stations






























Interactive Weather Map
Tropical Storm Tracking
New forecast layout! Learn more

10-Day Weather Forecast

Advertisements
Track Severe Weather on mobile